Time;durP1;ratioP1;P1;durP2;ratioP2;P2;SDS_P1;SDS_P2;PMS_P1;PMS_P2;Temp;Humidity;BMP_temperature;BMP_pressure;BME280_temperature;BME280_humidity;BME280_pressure;Samples;Min_cycle;Max_cycle;Signal;HPM_P1;HPM_P2
2023/04/19 00:01:00;;;;;;;5.60;4.45;;;;;;;19.05;40.89;102562.38;4996025;28;20037;-69
2023/04/19 00:03:26;;;;;;;6.07;4.38;;;;;;;19.05;41.10;102561.53;4993155;28;20033;-69
2023/04/19 00:05:53;;;;;;;5.50;4.53;;;;;;;19.03;40.99;102559.81;4988591;28;20033;-67
2023/04/19 00:08:18;;;;;;;5.95;4.20;;;;;;;19.04;40.86;102555.38;4988047;28;20042;-68
2023/04/19 00:10:43;;;;;;;5.40;4.10;;;;;;;19.03;40.92;102556.31;4987625;28;20048;-70
2023/04/19 00:13:09;;;;;;;5.53;4.18;;;;;;;19.01;41.11;102550.28;4981872;28;20482;-69
2023/04/19 00:15:34;;;;;;;6.32;4.32;;;;;;;18.98;41.00;102548.66;4994977;28;20026;-70
2023/04/19 00:18:00;;;;;;;5.38;4.10;;;;;;;18.99;41.04;102553.03;4993400;28;20121;-69
2023/04/19 00:20:26;;;;;;;6.15;4.13;;;;;;;18.98;41.13;102551.31;4998823;28;20034;-69
2023/04/19 00:22:51;;;;;;;5.50;4.00;;;;;;;18.99;41.13;102557.44;4998873;28;20125;-69
2023/04/19 00:25:16;;;;;;;6.28;4.68;;;;;;;18.98;41.05;102542.53;4996861;28;20042;-68
2023/04/19 00:27:41;;;;;;;5.43;4.13;;;;;;;18.97;41.12;102540.81;4989267;28;20065;-70
2023/04/19 00:30:07;;;;;;;6.32;4.57;;;;;;;18.98;40.86;102546.03;4999666;28;21137;-68
2023/04/19 00:32:32;;;;;;;6.15;4.80;;;;;;;18.96;40.97;102544.41;4996567;28;20049;-67
2023/04/19 00:34:58;;;;;;;7.38;5.13;;;;;;;18.95;41.04;102540.06;4987929;28;20088;-69
2023/04/19 00:37:23;;;;;;;5.68;3.97;;;;;;;18.96;40.97;102545.28;4987508;28;20105;-67
2023/04/19 00:39:48;;;;;;;5.72;4.00;;;;;;;18.97;41.10;102543.47;4989191;28;20501;-70
2023/04/19 00:42:13;;;;;;;5.32;4.25;;;;;;;18.95;41.29;102538.28;4992466;28;20482;-69
2023/04/19 00:44:39;;;;;;;5.45;4.22;;;;;;;18.94;41.11;102541.84;4993122;28;20036;-70
2023/04/19 00:47:04;;;;;;;5.70;4.32;;;;;;;18.96;41.06;102547.03;4992824;28;20034;-69
2023/04/19 00:49:30;;;;;;;6.03;4.55;;;;;;;18.94;40.96;102541.84;4992731;28;20097;-69
2023/04/19 00:51:55;;;;;;;5.72;4.40;;;;;;;18.94;41.14;102543.63;4999751;28;20048;-69
2023/04/19 00:54:21;;;;;;;5.90;4.55;;;;;;;18.95;41.07;102540.06;4988818;28;20443;-68
2023/04/19 00:56:46;;;;;;;5.90;4.43;;;;;;;18.94;41.00;102533.91;4994089;28;20033;-68
2023/04/19 00:59:13;;;;;;;5.70;4.38;;;;;;;18.92;41.00;102537.59;4999138;28;20050;-71
2023/04/19 01:01:40;;;;;;;6.32;4.72;;;;;;;18.92;40.92;102537.59;4989321;28;20038;-69
2023/04/19 01:04:06;;;;;;;6.10;4.80;;;;;;;18.92;41.12;102540.25;4985996;28;20525;-69
2023/04/19 01:06:33;;;;;;;5.88;4.28;;;;;;;18.91;41.11;102543.81;4997891;28;20030;-68
2023/04/19 01:08:58;;;;;;;5.93;4.68;;;;;;;18.90;40.94;102536.81;4990438;28;20471;-69
2023/04/19 01:11:27;;;;;;;5.80;4.60;;;;;;;18.90;41.07;102539.47;4994212;28;20038;-68
2023/04/19 01:13:54;;;;;;;6.28;4.50;;;;;;;18.90;40.96;102535.06;4995163;28;20837;-68
2023/04/19 01:16:19;;;;;;;6.60;4.72;;;;;;;18.90;41.04;102539.47;4996502;28;20042;-70
2023/04/19 01:18:45;;;;;;;5.93;4.57;;;;;;;18.89;40.77;102533.34;4971307;28;20045;-69
2023/04/19 01:21:11;;;;;;;5.35;4.22;;;;;;;18.89;41.18;102537.78;4995345;28;20042;-69
2023/04/19 01:23:38;;;;;;;6.40;4.60;;;;;;;18.89;40.82;102538.63;4995293;28;20065;-69
2023/04/19 01:26:04;;;;;;;5.40;4.15;;;;;;;18.88;40.78;102536.91;4993533;28;20490;-69
2023/04/19 01:28:29;;;;;;;5.72;4.32;;;;;;;18.88;40.98;102541.34;4988753;28;20030;-68
2023/04/19 01:30:54;;;;;;;5.65;4.60;;;;;;;18.85;40.83;102532.69;4996542;28;20041;-69
2023/04/19 01:33:20;;;;;;;5.65;4.40;;;;;;;18.86;41.02;102538.81;4994072;28;20348;-69
2023/04/19 01:35:46;;;;;;;7.28;4.80;;;;;;;18.85;41.07;102534.47;4979753;28;20474;-68
2023/04/19 01:38:11;;;;;;;5.55;4.13;;;;;;;18.85;40.89;102537.13;4966811;28;20068;-69
2023/04/19 01:40:37;;;;;;;6.03;4.40;;;;;;;18.85;40.96;102548.53;4988675;28;20046;-68
2023/04/19 01:43:02;;;;;;;5.78;4.15;;;;;;;18.84;41.04;102541.53;4994855;28;21162;-71
2023/04/19 01:45:27;;;;;;;5.22;3.75;;;;;;;18.82;41.08;102540.75;4984168;28;20042;-69
2023/04/19 01:47:53;;;;;;;6.03;4.63;;;;;;;18.84;41.25;102535.41;4984548;28;20415;-69
2023/04/19 01:50:18;;;;;;;5.53;4.25;;;;;;;18.83;41.13;102533.66;4986525;28;20160;-69
2023/04/19 01:52:43;;;;;;;6.05;4.50;;;;;;;18.81;41.00;102530.25;4999742;28;20120;-68
2023/04/19 01:55:08;;;;;;;5.63;4.50;;;;;;;18.82;40.90;102532.81;5002934;28;20044;-69
2023/04/19 01:57:34;;;;;;;6.22;4.35;;;;;;;18.84;41.06;102532.75;4988577;28;20095;-67
2023/04/19 02:00:00;;;;;;;6.07;4.60;;;;;;;18.80;40.85;102526.78;4987597;28;20054;-70
2023/04/19 02:02:25;;;;;;;6.18;4.57;;;;;;;18.81;41.05;102528.47;4983715;28;20288;-69
2023/04/19 02:04:50;;;;;;;6.60;4.47;;;;;;;18.79;41.30;102518.94;4983789;28;20614;-69
2023/04/19 02:07:16;;;;;;;6.63;4.85;;;;;;;18.79;41.01;102521.59;4983624;28;20782;-71
2023/04/19 02:09:41;;;;;;;5.60;4.00;;;;;;;18.80;41.00;102520.63;4994193;28;20532;-69
2023/04/19 02:12:06;;;;;;;6.35;4.60;;;;;;;18.79;41.00;102511.88;4994070;28;20379;-70
2023/04/19 02:14:32;;;;;;;6.20;4.80;;;;;;;18.76;41.12;102509.41;4991575;28;20033;-69
2023/04/19 02:16:57;;;;;;;6.95;4.57;;;;;;;18.77;41.20;102503.19;4983654;28;20042;-69
2023/04/19 02:19:23;;;;;;;5.57;4.18;;;;;;;18.77;41.11;102508.47;4990918;28;20043;-69
2023/04/19 02:21:48;;;;;;;5.60;4.10;;;;;;;18.76;41.24;102506.75;4981624;28;20025;-70
2023/04/19 02:24:14;;;;;;;6.47;4.35;;;;;;;18.78;41.37;102504.03;4984958;28;20115;-69
2023/04/19 02:26:39;;;;;;;5.70;4.50;;;;;;;18.79;41.29;102508.38;5002587;28;20022;-68
2023/04/19 02:29:05;;;;;;;5.30;4.00;;;;;;;18.78;41.17;102509.31;4985191;28;20088;-68
2023/04/19 02:31:30;;;;;;;5.93;4.20;;;;;;;18.78;41.20;102510.16;4968835;28;20398;-70
2023/04/19 02:33:56;;;;;;;6.10;4.25;;;;;;;18.76;41.24;102506.75;5001402;28;20041;-68
2023/04/19 02:36:21;;;;;;;5.30;3.97;;;;;;;18.77;41.15;102510.25;4984819;28;20037;-69
2023/04/19 02:38:46;;;;;;;5.70;4.10;;;;;;;18.79;41.23;102509.22;5002515;28;20550;-71
2023/04/19 02:41:12;;;;;;;5.32;3.90;;;;;;;18.80;41.22;102510.94;5001896;28;20033;-70
2023/04/19 02:43:37;;;;;;;5.88;4.13;;;;;;;18.79;41.24;102509.22;5002588;28;20445;-69
2023/04/19 02:46:02;;;;;;;5.90;3.83;;;;;;;18.78;41.22;102510.16;4985085;28;20070;-68
2023/04/19 02:48:28;;;;;;;5.18;4.10;;;;;;;18.78;41.23;102506.66;4965444;28;20038;-68
2023/04/19 02:50:53;;;;;;;5.97;4.32;;;;;;;18.76;41.30;102503.28;4989493;28;20121;-69
2023/04/19 02:53:18;;;;;;;5.95;4.25;;;;;;;18.79;41.23;102508.38;5002186;28;20385;-69
2023/04/19 02:55:43;;;;;;;7.40;4.45;;;;;;;18.77;41.04;102508.47;4991217;28;20061;-69
2023/04/19 02:58:09;;;;;;;6.33;4.50;;;;;;;18.79;41.23;102508.38;4994732;28;20087;-70
2023/04/19 03:00:34;;;;;;;6.13;4.70;;;;;;;18.77;41.24;102510.25;4999636;28;20582;-68
2023/04/19 03:03:02;;;;;;;6.78;4.60;;;;;;;18.76;41.14;102506.75;4982180;28;20085;-68
2023/04/19 03:05:28;;;;;;;5.90;4.65;;;;;;;18.75;41.22;102512.97;4982640;28;20447;-68
2023/04/19 03:07:53;;;;;;;6.07;4.47;;;;;;;18.75;41.16;102509.47;4997457;28;20038;-69
2023/04/19 03:10:18;;;;;;;6.10;4.70;;;;;;;18.75;41.24;102502.41;4982406;28;20121;-70
2023/04/19 03:12:44;;;;;;;5.55;4.15;;;;;;;18.75;41.16;102504.19;4977159;28;20161;-70
2023/04/19 03:15:10;;;;;;;5.57;4.60;;;;;;;18.74;41.24;102513.94;4967299;28;20065;-70
2023/04/19 03:17:36;;;;;;;6.22;4.30;;;;;;;18.76;41.21;102500.63;4964686;28;20479;-69
2023/04/19 03:20:01;;;;;;;6.93;4.10;;;;;;;18.74;41.28;102506.00;4993716;28;20045;-69
2023/04/19 03:22:26;;;;;;;6.25;4.40;;;;;;;18.72;41.43;102499.94;4982796;28;20029;-69
2023/04/19 03:24:52;;;;;;;6.18;4.05;;;;;;;18.74;41.64;102494.56;4990997;28;21328;-69
2023/04/19 03:27:17;;;;;;;6.47;4.28;;;;;;;18.73;41.48;102504.28;4989614;28;20053;-69
2023/04/19 03:29:42;;;;;;;6.57;4.40;;;;;;;18.72;41.29;102499.94;5001697;28;20026;-68
2023/04/19 03:32:08;;;;;;;6.10;4.00;;;;;;;18.73;41.20;102506.09;5001726;28;20053;-68
2023/04/19 03:34:33;;;;;;;5.95;4.25;;;;;;;18.72;41.26;102499.09;4983083;28;20030;-69
2023/04/19 03:36:58;;;;;;;5.63;3.83;;;;;;;18.70;41.75;102493.91;4981929;28;20541;-68
2023/04/19 03:39:23;;;;;;;6.28;4.43;;;;;;;18.69;41.30;102492.19;4983294;28;20270;-68
2023/04/19 03:41:49;;;;;;;6.28;4.32;;;;;;;18.68;41.10;102487.88;4997165;28;20038;-69
2023/04/19 03:44:15;;;;;;;5.75;4.22;;;;;;;18.68;41.36;102496.63;4990808;28;20037;-69
2023/04/19 03:46:41;;;;;;;6.20;4.55;;;;;;;18.70;41.34;102491.25;4992493;28;20038;-69
2023/04/19 03:49:06;;;;;;;5.95;4.20;;;;;;;18.68;41.11;102491.34;4998679;28;20092;-68
2023/04/19 03:51:31;;;;;;;7.53;4.47;;;;;;;18.69;41.46;102489.53;4989277;28;20470;-68
2023/04/19 03:53:57;;;;;;;5.63;4.38;;;;;;;18.66;41.46;102482.66;4996091;28;20046;-69
2023/04/19 03:56:22;;;;;;;5.88;3.80;;;;;;;18.66;41.63;102492.41;4981998;28;20479;-68
2023/04/19 03:58:50;;;;;;;6.78;4.30;;;;;;;18.67;41.48;102487.03;4981931;28;20034;-70
2023/04/19 04:01:19;;;;;;;5.65;4.03;;;;;;;18.64;41.41;102486.31;4986013;28;20042;-69
2023/04/19 04:03:44;;;;;;;5.43;4.00;;;;;;;18.64;41.46;102492.47;4993740;28;20034;-69
2023/04/19 04:06:10;;;;;;;5.75;4.28;;;;;;;18.65;41.66;102490.69;4992528;28;20517;-68
2023/04/19 04:08:35;;;;;;;5.30;4.17;;;;;;;18.63;41.89;102490.78;4995422;28;20390;-68
2023/04/19 04:11:00;;;;;;;5.75;4.25;;;;;;;18.65;41.37;102502.09;4987837;28;20321;-69
2023/04/19 04:13:25;;;;;;;6.90;4.47;;;;;;;18.69;41.35;102500.09;4999691;28;20475;-70
2023/04/19 04:15:51;;;;;;;5.97;4.30;;;;;;;18.68;41.49;102501.91;4986088;28;20121;-69
2023/04/19 04:18:16;;;;;;;6.20;4.55;;;;;;;18.66;41.54;102495.88;4973310;28;20119;-69
2023/04/19 04:20:43;;;;;;;6.07;3.90;;;;;;;18.66;41.53;102493.22;4996281;28;20033;-70
2023/04/19 04:23:09;;;;;;;6.05;4.25;;;;;;;18.66;41.41;102495.03;5003976;28;20117;-70
2023/04/19 04:25:36;;;;;;;6.00;4.15;;;;;;;18.64;41.43;102488.97;4985725;28;20137;-71
2023/04/19 04:28:02;;;;;;;6.82;4.05;;;;;;;18.65;41.44;102502.09;4972147;28;20052;-70
2023/04/19 04:30:27;;;;;;;5.60;3.90;;;;;;;18.66;41.47;102501.16;4998556;28;20034;-69
2023/04/19 04:32:56;;;;;;;6.15;4.40;;;;;;;18.66;41.27;102505.59;4985799;28;20049;-69
2023/04/19 04:35:22;;;;;;;5.88;4.00;;;;;;;18.65;41.35;102499.44;4986343;28;20038;-68
2023/04/19 04:37:47;;;;;;;6.15;4.20;;;;;;;18.65;41.39;102495.97;4985502;28;20545;-70
2023/04/19 04:40:13;;;;;;;5.45;3.80;;;;;;;18.66;41.27;102503.78;4987725;28;20029;-70
2023/04/19 04:42:38;;;;;;;5.45;4.07;;;;;;;18.65;41.35;102501.25;4996766;28;20029;-69
2023/04/19 04:45:04;;;;;;;5.10;3.70;;;;;;;18.64;41.27;102508.31;5003905;28;20068;-68
2023/04/19 04:47:31;;;;;;;5.45;3.85;;;;;;;18.66;41.18;102505.59;5004897;28;20513;-69
2023/04/19 04:49:56;;;;;;;6.78;4.03;;;;;;;18.62;41.22;102507.53;4992571;28;20030;-69
2023/04/19 04:52:21;;;;;;;6.45;4.00;;;;;;;18.65;41.36;102510.00;4987805;28;20040;-68
2023/04/19 04:54:47;;;;;;;5.32;3.70;;;;;;;18.64;41.25;102510.97;4996949;28;20058;-68
2023/04/19 04:57:12;;;;;;;6.07;4.07;;;;;;;18.64;41.45;102510.09;4967127;28;20038;-68
2023/04/19 04:59:37;;;;;;;5.95;4.00;;;;;;;18.64;41.19;102520.66;4985109;28;20295;-69
2023/04/19 05:02:02;;;;;;;7.00;3.73;;;;;;;18.60;41.55;102517.34;4986302;28;20643;-69
2023/04/19 05:04:28;;;;;;;5.27;3.70;;;;;;;18.60;41.42;102521.78;4986482;28;20271;-70
2023/04/19 05:06:53;;;;;;;5.90;4.00;;;;;;;18.61;41.31;102524.34;5001576;28;20306;-69
2023/04/19 05:09:18;;;;;;;5.35;3.95;;;;;;;18.59;41.18;102517.44;4987546;28;20379;-68
2023/04/19 05:11:43;;;;;;;5.30;3.70;;;;;;;18.58;41.61;102524.50;4986075;28;20497;-69
2023/04/19 05:14:09;;;;;;;7.55;3.70;;;;;;;18.58;41.60;102524.50;4990052;28;20069;-68
2023/04/19 05:16:34;;;;;;;6.55;3.90;;;;;;;18.56;41.48;102520.25;4981795;28;20030;-68
2023/04/19 05:18:59;;;;;;;5.93;3.25;;;;;;;18.55;41.44;102523.81;4993073;28;20030;-69
2023/04/19 05:21:25;;;;;;;4.63;3.30;;;;;;;18.56;41.63;102526.38;4995505;28;20963;-69
2023/04/19 05:23:52;;;;;;;5.95;3.28;;;;;;;18.61;41.65;102523.47;5001700;28;20406;-69
2023/04/19 05:26:18;;;;;;;5.88;3.35;;;;;;;18.63;41.79;102524.25;4966234;28;20503;-68
2023/04/19 05:28:43;;;;;;;4.82;3.17;;;;;;;18.66;41.75;102527.56;4984460;28;20125;-68
2023/04/19 05:31:09;;;;;;;4.40;2.90;;;;;;;18.68;41.69;102530.13;4974163;28;20406;-69
2023/04/19 05:33:34;;;;;;;4.53;3.10;;;;;;;18.71;41.70;102523.78;4971017;28;20041;-68
2023/04/19 05:36:00;;;;;;;4.10;2.70;;;;;;;18.74;41.82;102534.19;4996871;28;20192;-69
2023/04/19 05:38:25;;;;;;;4.70;2.92;;;;;;;18.75;41.59;102534.09;4976051;28;20341;-70
2023/04/19 05:40:50;;;;;;;4.88;3.22;;;;;;;18.79;41.65;102532.16;4990641;28;20036;-70
2023/04/19 05:43:15;;;;;;;5.03;2.83;;;;;;;18.82;41.47;102537.25;4990569;28;20255;-70
2023/04/19 05:45:41;;;;;;;4.50;2.88;;;;;;;18.82;41.68;102521.41;4993011;28;20255;-69
2023/04/19 05:48:06;;;;;;;4.70;3.05;;;;;;;18.86;41.54;102525.59;4975151;28;20041;-69
2023/04/19 05:50:31;;;;;;;4.57;2.85;;;;;;;18.87;41.44;102522.03;4981943;28;20389;-70
2023/04/19 05:52:57;;;;;;;4.43;2.75;;;;;;;18.90;41.44;102526.25;5003268;28;20038;-70
2023/04/19 05:55:23;;;;;;;4.63;2.80;;;;;;;18.92;41.51;102527.88;5003275;28;20484;-69
2023/04/19 05:57:48;;;;;;;4.57;3.17;;;;;;;18.93;41.23;102520.78;4984240;28;20050;-69
2023/04/19 06:00:15;;;;;;;4.20;2.78;;;;;;;18.95;41.32;102530.34;4976229;28;20044;-69
2023/04/19 06:02:40;;;;;;;4.38;2.78;;;;;;;18.98;41.35;102537.25;4988018;28;20030;-67
2023/04/19 06:05:06;;;;;;;5.30;3.08;;;;;;;18.97;41.32;102535.53;4983792;28;20030;-68
2023/04/19 06:07:31;;;;;;;6.28;3.08;;;;;;;19.02;41.50;102539.59;4983769;28;20363;-68
2023/04/19 06:09:56;;;;;;;4.20;2.80;;;;;;;18.98;41.68;102538.09;4984048;28;20776;-68
2023/04/19 06:12:22;;;;;;;4.10;2.65;;;;;;;19.03;41.99;102540.47;4986338;28;20081;-69
2023/04/19 06:14:47;;;;;;;4.80;3.00;;;;;;;19.02;41.99;102541.41;4983626;28;20042;-70
2023/04/19 06:17:13;;;;;;;4.83;2.70;;;;;;;19.05;41.69;102543.03;4984716;28;20471;-68
2023/04/19 06:19:38;;;;;;;5.03;3.20;;;;;;;19.06;41.62;102548.22;4996083;28;20272;-69
2023/04/19 06:22:04;;;;;;;4.32;2.78;;;;;;;19.04;41.63;102542.16;4965819;28;20025;-67
2023/04/19 06:24:29;;;;;;;4.00;2.60;;;;;;;19.05;41.61;102540.38;4992725;28;20065;-67
2023/04/19 06:26:56;;;;;;;4.63;2.55;;;;;;;19.04;41.52;102542.16;4991283;28;20379;-66
2023/04/19 06:29:23;;;;;;;4.75;2.70;;;;;;;19.04;41.91;102544.78;4965401;28;20026;-68
2023/04/19 06:31:48;;;;;;;5.03;2.90;;;;;;;19.08;41.67;102545.50;4988110;28;20041;-67
2023/04/19 06:34:13;;;;;;;5.57;2.42;;;;;;;19.10;41.83;102530.38;4995972;28;20041;-66
2023/04/19 06:36:39;;;;;;;5.30;2.40;;;;;;;19.12;42.15;102542.59;4988091;28;20030;-69
2023/04/19 06:39:04;;;;;;;5.13;2.55;;;;;;;19.17;41.89;102531.75;4965638;28;20036;-71
2023/04/19 06:41:30;;;;;;;4.28;2.40;;;;;;;19.24;41.50;102543.63;4965631;28;20043;-69
2023/04/19 06:43:55;;;;;;;4.55;2.20;;;;;;;19.23;41.72;102527.88;4983173;28;20026;-69
2023/04/19 06:46:20;;;;;;;4.30;2.20;;;;;;;19.26;41.57;102525.03;4965526;28;20066;-68
2023/04/19 06:48:46;;;;;;;6.72;2.60;;;;;;;19.25;41.60;102526.84;4995048;28;20034;-68
2023/04/19 06:51:11;;;;;;;4.10;2.08;;;;;;;19.23;41.80;102522.59;5002598;28;20087;-68
2023/04/19 06:53:36;;;;;;;6.18;2.47;;;;;;;19.24;41.86;102527.78;4988951;28;20141;-69
2023/04/19 06:56:03;;;;;;;4.07;2.17;;;;;;;19.23;42.01;102526.06;4987063;28;20391;-69
2023/04/19 06:58:30;;;;;;;6.18;2.30;;;;;;;19.23;42.01;102527.88;4992679;28;20034;-68
2023/04/19 07:00:56;;;;;;;4.00;2.28;;;;;;;19.18;41.95;102521.09;4995174;28;20023;-69
2023/04/19 07:03:21;;;;;;;5.25;2.20;;;;;;;19.23;41.83;102535.78;4984964;28;20076;-69
2023/04/19 07:05:47;;;;;;;5.78;2.22;;;;;;;19.24;41.96;102534.88;4999888;28;20027;-68
2023/04/19 07:08:12;;;;;;;4.82;2.60;;;;;;;19.23;42.00;102534.00;4996000;28;21223;-69
2023/04/19 07:10:37;;;;;;;6.22;2.40;;;;;;;19.24;42.05;102534.88;4994918;28;20041;-68
2023/04/19 07:13:03;;;;;;;4.90;2.30;;;;;;;19.24;41.80;102527.78;4982536;28;20034;-68
2023/04/19 07:15:28;;;;;;;4.00;2.58;;;;;;;19.22;42.10;102532.31;4999060;28;20022;-68
2023/04/19 07:17:53;;;;;;;4.45;2.30;;;;;;;19.25;41.98;102533.91;4989817;28;20038;-69
2023/04/19 07:20:20;;;;;;;5.07;2.38;;;;;;;19.26;42.14;102535.63;4982440;28;20031;-68
2023/04/19 07:22:45;;;;;;;5.97;2.30;;;;;;;19.25;42.21;102534.78;4991525;28;20056;-69
2023/04/19 07:25:11;;;;;;;6.05;2.45;;;;;;;19.27;42.13;102532.03;4974576;28;20414;-68
2023/04/19 07:27:36;;;;;;;4.45;2.47;;;;;;;19.27;42.44;102527.59;4981196;28;20441;-68
2023/04/19 07:30:01;;;;;;;4.40;2.37;;;;;;;19.27;42.28;102537.31;4992787;28;20471;-69
2023/04/19 07:32:26;;;;;;;5.22;2.53;;;;;;;19.29;42.39;102530.16;4985351;28;20453;-70
2023/04/19 07:34:52;;;;;;;5.72;2.20;;;;;;;19.31;42.49;102533.53;4983799;28;20368;-69
2023/04/19 07:37:18;;;;;;;4.90;2.05;;;;;;;19.30;42.49;102529.22;4984379;28;20070;-67
2023/04/19 07:39:44;;;;;;;5.03;2.10;;;;;;;19.28;42.44;102523.16;4989648;28;20057;-68
2023/04/19 07:42:09;;;;;;;5.63;2.33;;;;;;;19.29;42.50;102524.84;5001170;28;20138;-69
2023/04/19 07:44:34;;;;;;;4.43;1.98;;;;;;;19.29;42.24;102524.84;4998092;28;20438;-68
2023/04/19 07:47:00;;;;;;;7.32;2.50;;;;;;;19.26;42.28;102523.25;4990473;28;20038;-69
2023/04/19 07:49:25;;;;;;;4.50;2.57;;;;;;;19.28;42.44;102524.03;4996052;28;20026;-67
2023/04/19 07:51:50;;;;;;;4.30;2.30;;;;;;;19.29;42.40;102522.22;4969094;28;20331;-68
2023/04/19 07:54:18;;;;;;;4.90;2.30;;;;;;;19.30;42.42;102534.50;5001193;28;20164;-68
2023/04/19 07:56:44;;;;;;;4.00;2.10;;;;;;;19.32;42.24;102522.03;4981710;28;20038;-66
2023/04/19 07:59:09;;;;;;;5.55;2.50;;;;;;;19.34;42.47;102517.50;4982638;28;20696;-69
2023/04/19 08:01:35;;;;;;;4.53;2.10;;;;;;;19.37;42.21;102523.44;4982328;28;20053;-71
2023/04/19 08:04:01;;;;;;;4.97;2.20;;;;;;;19.38;41.87;102519.88;4989861;28;20030;-69
2023/04/19 08:06:26;;;;;;;4.75;2.20;;;;;;;19.45;41.87;102519.50;4993254;28;20038;-72
2023/04/19 08:08:52;;;;;;;6.05;2.53;;;;;;;19.44;41.89;102523.94;4987453;28;20031;-71
2023/04/19 08:11:17;;;;;;;7.38;2.17;;;;;;;19.49;41.74;102521.88;4989033;28;20041;-71
2023/04/19 08:13:43;;;;;;;4.95;2.45;;;;;;;19.51;41.71;102516.50;4988267;28;20034;-69
2023/04/19 08:16:08;;;;;;;6.10;2.30;;;;;;;19.51;41.72;102516.50;4982775;28;20108;-69
2023/04/19 08:18:34;;;;;;;4.72;2.28;;;;;;;19.49;41.94;102513.94;4991781;28;20026;-69
2023/04/19 08:21:00;;;;;;;5.10;2.38;;;;;;;19.52;41.79;102512.91;4963708;28;20517;-70
2023/04/19 08:23:25;;;;;;;6.00;3.10;;;;;;;19.50;41.77;102506.84;4963508;28;20116;-72
2023/04/19 08:25:50;;;;;;;5.68;2.58;;;;;;;19.54;41.56;102500.44;4999420;28;20029;-74
2023/04/19 08:28:17;;;;;;;5.28;2.20;;;;;;;19.53;41.69;102502.22;4982846;28;20038;-76
2023/04/19 08:30:42;;;;;;;6.07;2.20;;;;;;;19.52;41.90;102515.56;5000507;28;20092;-72
2023/04/19 08:33:07;;;;;;;4.25;2.30;;;;;;;19.50;41.89;102510.34;4991657;28;20038;-71
2023/04/19 08:35:35;;;;;;;6.00;2.60;;;;;;;19.51;41.82;102496.19;4992820;28;20169;-66
2023/04/19 08:38:00;;;;;;;7.32;2.58;;;;;;;19.51;41.52;102504.09;4991428;28;20031;-68
2023/04/19 08:40:25;;;;;;;5.18;2.40;;;;;;;19.57;41.72;102510.81;4970514;28;20065;-68
2023/04/19 08:42:51;;;;;;;6.90;3.85;;;;;;;19.59;41.66;102501.00;4989125;28;20036;-69
2023/04/19 08:45:18;;;;;;;4.80;2.22;;;;;;;19.63;41.52;102506.94;4985878;28;20050;-69
2023/04/19 08:47:44;;;;;;;6.00;2.45;;;;;;;19.59;41.85;102498.34;4990706;28;20053;-68
2023/04/19 08:50:10;;;;;;;6.38;2.30;;;;;;;19.60;41.98;102494.78;4973015;28;20030;-69
2023/04/19 08:52:36;;;;;;;4.53;2.30;;;;;;;19.54;42.03;102508.38;4980706;28;20371;-68
2023/04/19 08:55:07;;;;;;;5.72;2.75;;;;;;;19.52;41.90;102495.25;4988136;28;20057;-69
2023/04/19 08:57:33;;;;;;;6.68;2.42;;;;;;;19.51;42.12;102492.69;4982116;28;20578;-69
2023/04/19 09:00:00;;;;;;;6.15;2.60;;;;;;;19.47;42.08;102496.44;5001224;28;20053;-70
2023/04/19 09:02:25;;;;;;;4.97;2.50;;;;;;;19.50;42.14;102494.50;4995142;28;20104;-68
2023/04/19 09:04:50;;;;;;;5.40;2.40;;;;;;;19.52;42.36;102502.34;4993920;28;20029;-71
2023/04/19 09:07:24;;;;;;;4.50;2.45;;;;;;;19.56;41.97;102495.91;4996114;28;20034;-75
2023/04/19 09:10:07;;;;;;;8.03;3.13;;;;;;;19.58;42.21;102504.56;4995066;28;20040;-69
2023/04/19 09:12:33;;;;;;;4.93;2.40;;;;;;;19.57;42.04;102498.44;5003858;28;20045;-69
2023/04/19 09:14:59;;;;;;;5.85;2.60;;;;;;;19.58;42.09;102502.81;5002315;28;20042;-70
2023/04/19 09:17:25;;;;;;;5.45;2.47;;;;;;;19.56;42.13;102503.81;4991827;28;20037;-70
2023/04/19 09:19:50;;;;;;;4.50;2.40;;;;;;;19.56;42.25;102491.44;4967279;28;20038;-69
2023/04/19 09:22:16;;;;;;;4.20;2.30;;;;;;;19.53;42.32;102489.00;4983346;28;20088;-70
2023/04/19 09:24:41;;;;;;;4.57;2.50;;;;;;;19.53;42.37;102496.09;4972535;28;20779;-71
2023/04/19 09:27:06;;;;;;;5.95;2.13;;;;;;;19.54;42.38;102497.78;4989289;28;20041;-69
2023/04/19 09:29:32;;;;;;;5.22;2.92;;;;;;;19.53;42.37;102490.78;4970346;28;20383;-73
2023/04/19 09:31:58;;;;;;;9.35;2.50;;;;;;;19.54;42.51;102498.63;4995989;28;20038;-72
2023/04/19 09:34:24;;;;;;;3.92;2.10;;;;;;;19.53;42.64;102494.28;4989541;28;20026;-72
2023/04/19 09:36:49;;;;;;;6.03;2.30;;;;;;;19.54;42.51;102490.69;4984504;28;20109;-71
2023/04/19 09:39:28;;;;;;;4.97;2.55;;;;;;;19.52;42.47;102503.19;4991072;28;20616;-71
2023/04/19 09:41:54;;;;;;;5.05;2.70;;;;;;;19.52;42.32;102495.25;4986056;28;20045;-74
2023/04/19 09:44:20;;;;;;;6.97;2.70;;;;;;;19.52;42.18;102491.75;5000346;28;20034;-74
2023/04/19 09:46:47;;;;;;;4.78;2.40;;;;;;;19.53;40.84;102499.56;4977188;28;20681;-70
2023/04/19 09:49:14;;;;;;;4.70;2.25;;;;;;;19.52;41.79;102495.25;4989861;28;20034;-70
2023/04/19 09:51:40;;;;;;;7.47;2.60;;;;;;;19.50;41.93;102493.63;4983060;28;20038;-72
2023/04/19 09:54:07;;;;;;;5.07;2.70;;;;;;;19.48;42.01;102488.44;4999915;28;20065;-68
2023/04/19 09:56:32;;;;;;;5.72;3.15;;;;;;;19.46;42.29;102490.31;4992199;28;20092;-68
2023/04/19 09:58:57;;;;;;;8.05;2.53;;;;;;;19.48;42.11;102483.13;4999773;28;20034;-72
2023/04/19 10:01:25;;;;;;;8.35;2.40;;;;;;;19.46;42.20;102478.91;5000714;28;20026;-71
2023/04/19 10:03:51;;;;;;;4.45;2.30;;;;;;;19.45;42.18;102487.78;4984735;28;20038;-69
2023/04/19 10:06:18;;;;;;;5.68;2.60;;;;;;;19.44;42.21;102486.06;4984678;28;20116;-69
2023/04/19 10:08:44;;;;;;;6.57;2.70;;;;;;;19.43;41.97;102482.56;4999518;28;20040;-71
2023/04/19 10:11:11;;;;;;;4.65;2.45;;;;;;;19.45;41.85;102483.31;4984381;28;20619;-72
2023/04/19 10:13:36;;;;;;;5.88;2.28;;;;;;;19.47;42.10;102492.03;4996623;28;20034;-69
2023/04/19 10:16:02;;;;;;;4.93;2.40;;;;;;;19.46;42.10;102486.84;5002186;28;20052;-69
2023/04/19 10:18:28;;;;;;;6.65;2.47;;;;;;;19.47;41.56;102485.88;4990069;28;20112;-70
2023/04/19 10:20:59;;;;;;;5.70;2.30;;;;;;;19.42;41.75;102482.66;4986311;28;20057;-70
2023/04/19 10:23:25;;;;;;;5.93;2.65;;;;;;;19.42;41.75;102485.31;4983761;28;20615;-69
2023/04/19 10:25:55;;;;;;;4.18;2.20;;;;;;;19.41;41.76;102479.19;4988229;28;20026;-69
2023/04/19 10:28:21;;;;;;;5.07;2.33;;;;;;;19.42;41.95;102470.28;4969968;28;20037;-70
2023/04/19 10:31:04;;;;;;;5.40;1.95;;;;;;;19.43;41.61;102471.16;4987487;28;20034;-73
2023/04/19 10:33:34;;;;;;;6.32;2.00;;;;;;;19.55;41.69;102475.66;4989725;28;20050;-71
2023/04/19 10:36:00;;;;;;;4.68;2.17;;;;;;;19.58;40.89;102462.25;4990934;28;20030;-75
2023/04/19 10:38:41;;;;;;;4.40;2.40;;;;;;;19.61;40.51;102467.38;4997910;28;20041;-74
2023/04/19 10:41:11;;;;;;;4.75;2.38;;;;;;;19.59;40.95;102463.97;4985580;28;20045;-68
2023/04/19 10:43:37;;;;;;;4.55;1.95;;;;;;;19.50;40.27;102475.13;4988184;28;20061;-72
2023/04/19 10:46:07;;;;;;;5.97;2.10;;;;;;;19.46;40.93;102473.63;4987967;28;20089;-69
2023/04/19 10:48:34;;;;;;;4.22;2.20;;;;;;;19.47;41.24;102481.47;4970081;28;20038;-70
2023/04/19 10:51:02;;;;;;;10.63;2.28;;;;;;;19.49;41.06;102465.50;4986736;28;20490;-69
2023/04/19 10:53:42;;;;;;;5.80;2.40;;;;;;;19.56;41.07;102464.16;4982106;28;20034;-67
2023/04/19 10:56:07;;;;;;;4.68;2.20;;;;;;;19.60;40.66;102467.47;4993663;28;20368;-71
2023/04/19 11:01:50;;;;;;;6.75;2.20;;;;;;;19.58;39.89;102459.63;4985442;28;20725;-68
2023/04/19 11:04:30;;;;;;;8.93;2.85;;;;;;;19.53;40.74;102448.47;4989967;28;20398;-69
2023/04/19 11:07:02;;;;;;;7.00;2.38;;;;;;;19.49;40.68;102449.63;4998438;28;20049;-68
2023/04/19 11:09:30;;;;;;;7.15;1.92;;;;;;;19.40;40.71;102438.66;4998777;28;20061;-69
2023/04/19 11:12:21;;;;;;;7.13;2.40;;;;;;;19.45;40.04;102450.75;4993797;28;20041;-70
2023/04/19 11:14:56;;;;;;;5.78;2.35;;;;;;;19.60;39.97;102447.16;4988583;28;20064;-70
2023/04/19 11:17:24;;;;;;;5.95;2.15;;;;;;;19.66;39.44;102440.63;4988099;28;20033;-74
2023/04/19 11:20:00;;;;;;;6.57;2.35;;;;;;;19.67;39.81;102456.41;4975057;28;20065;-70
2023/04/19 11:22:53;;;;;;;7.28;2.10;;;;;;;19.54;40.26;102456.31;4984044;28;20049;-74